createdAt,value
2022-10-21T00:01:53.371Z,19.10
2022-10-21T00:04:20.150Z,19.50
2022-10-21T00:06:47.066Z,20.07
2022-10-21T00:09:14.022Z,20.27
2022-10-21T00:11:40.858Z,19.87
2022-10-21T00:14:07.794Z,20.90
2022-10-21T00:16:34.619Z,19.87
2022-10-21T00:19:01.485Z,19.00
2022-10-21T00:21:28.340Z,20.77
2022-10-21T00:23:55.195Z,19.30
2022-10-21T00:26:22.554Z,19.83
2022-10-21T00:28:49.446Z,19.03
2022-10-21T00:31:16.599Z,19.83
2022-10-21T00:33:43.544Z,19.40
2022-10-21T00:36:15.471Z,19.97
2022-10-21T00:38:45.268Z,18.90
2022-10-21T00:41:13.475Z,20.20
2022-10-21T00:44:04.290Z,19.60
2022-10-21T00:46:39.660Z,19.87
2022-10-21T00:49:28.058Z,20.30
2022-10-21T00:52:00.011Z,19.87
2022-10-21T00:54:28.268Z,19.80
2022-10-21T00:56:57.789Z,20.00
2022-10-21T00:59:28.936Z,20.10
2022-10-21T01:01:56.110Z,20.03
2022-10-21T01:04:23.510Z,20.43
2022-10-21T01:06:50.762Z,19.40
2022-10-21T01:09:19.806Z,20.27
2022-10-21T01:11:47.590Z,21.13
2022-10-21T01:14:26.797Z,19.90
2022-10-21T01:17:20.532Z,19.80
2022-10-21T01:20:35.373Z,20.13
2022-10-21T01:23:31.259Z,20.17
2022-10-21T01:26:08.098Z,20.00
2022-10-21T01:29:26.130Z,20.13
2022-10-21T01:32:08.769Z,19.87
2022-10-21T01:34:43.773Z,20.10
2022-10-21T01:37:35.677Z,20.63
2022-10-21T01:40:26.679Z,20.07
2022-10-21T01:43:01.402Z,19.87
2022-10-21T01:45:42.607Z,19.50
2022-10-21T01:48:15.434Z,19.20
2022-10-21T01:50:47.329Z,18.33
2022-10-21T01:53:16.482Z,18.87
2022-10-21T01:55:45.428Z,18.23
2022-10-21T01:58:19.833Z,17.40
2022-10-21T02:00:48.264Z,18.57
2022-10-21T02:03:21.211Z,18.13
2022-10-21T02:05:48.026Z,17.47
2022-10-21T02:08:14.910Z,17.87
2022-10-21T02:10:45.841Z,18.20
2022-10-21T02:13:17.377Z,18.60
2022-10-21T02:15:44.830Z,17.17
2022-10-21T02:18:23.275Z,19.00
2022-10-21T02:20:59.940Z,17.03
2022-10-21T02:23:44.634Z,16.93
2022-10-21T02:26:11.756Z,15.60
2022-10-21T02:31:21.994Z,16.70
2022-10-21T02:34:07.693Z,15.80
2022-10-21T02:36:34.483Z,14.90
2022-10-21T02:39:07.313Z,15.50
2022-10-21T02:41:37.446Z,15.27
2022-10-21T02:44:05.227Z,15.50
2022-10-21T02:46:43.301Z,15.53
2022-10-21T02:49:10.532Z,15.90
2022-10-21T02:51:37.439Z,15.63
2022-10-21T02:54:04.359Z,14.90
2022-10-21T02:56:31.222Z,16.03
2022-10-21T02:58:58.360Z,14.77
2022-10-21T03:01:25.220Z,14.97
2022-10-21T03:03:52.116Z,14.03
2022-10-21T03:06:19.591Z,14.87
2022-10-21T03:08:46.446Z,14.00
2022-10-21T03:11:13.541Z,14.63
2022-10-21T03:13:40.442Z,14.70
2022-10-21T03:16:07.817Z,14.33
2022-10-21T03:18:34.653Z,15.00
2022-10-21T03:21:01.515Z,15.00
2022-10-21T03:23:28.323Z,14.20
2022-10-21T03:25:55.240Z,14.33
2022-10-21T03:28:22.094Z,14.20
2022-10-21T03:30:48.926Z,13.50
2022-10-21T03:33:15.791Z,14.40
2022-10-21T03:35:42.593Z,13.53
2022-10-21T03:38:09.411Z,14.10
2022-10-21T03:40:36.240Z,14.20
2022-10-21T03:43:03.221Z,13.80
2022-10-21T03:45:30.139Z,14.50
2022-10-21T03:47:56.978Z,14.00
2022-10-21T03:50:26.422Z,14.90
2022-10-21T03:52:54.375Z,15.40
2022-10-21T03:55:24.299Z,14.97
2022-10-21T03:57:51.909Z,15.00
2022-10-21T04:00:18.924Z,14.77
2022-10-21T04:02:45.870Z,14.97
2022-10-21T04:05:14.275Z,14.93
2022-10-21T04:07:41.155Z,14.47
2022-10-21T04:10:09.443Z,15.17
2022-10-21T04:12:36.557Z,15.03
2022-10-21T04:15:05.315Z,14.70
2022-10-21T04:17:32.115Z,14.17
2022-10-21T04:19:58.971Z,16.27
2022-10-21T04:22:25.819Z,15.03
2022-10-21T04:24:52.669Z,15.30
2022-10-21T04:27:19.561Z,16.47
2022-10-21T04:29:46.379Z,15.40
2022-10-21T04:32:13.255Z,15.17
2022-10-21T04:34:40.102Z,17.17
2022-10-21T04:37:06.895Z,16.80
2022-10-21T04:39:33.778Z,17.20
2022-10-21T04:42:00.594Z,16.00
2022-10-21T04:44:27.416Z,16.10
2022-10-21T04:46:54.389Z,15.27
2022-10-21T04:49:21.280Z,15.80
2022-10-21T04:51:48.172Z,15.43
2022-10-21T04:54:15.157Z,15.70
2022-10-21T04:56:42.760Z,16.00
2022-10-21T04:59:09.744Z,16.23
2022-10-21T05:01:36.794Z,16.83
2022-10-21T05:04:03.685Z,16.83
2022-10-21T05:06:30.834Z,16.70
2022-10-21T05:08:57.741Z,16.10
2022-10-21T05:11:24.752Z,16.17
2022-10-21T05:13:51.605Z,16.67
2022-10-21T05:16:18.516Z,16.87
2022-10-21T05:18:45.404Z,17.00
2022-10-21T05:21:12.256Z,17.23
2022-10-21T05:23:39.137Z,17.03
2022-10-21T05:26:05.968Z,16.60
2022-10-21T05:28:32.889Z,16.40
2022-10-21T05:30:59.768Z,16.80
2022-10-21T05:33:26.635Z,16.13
2022-10-21T05:36:01.949Z,17.40
2022-10-21T05:38:29.658Z,20.70
2022-10-21T05:40:57.793Z,21.40
2022-10-21T05:43:25.067Z,17.73
2022-10-21T05:45:51.958Z,17.07
2022-10-21T05:48:18.887Z,16.50
2022-10-21T05:50:46.933Z,16.87
2022-10-21T05:53:14.510Z,17.30
2022-10-21T05:55:41.318Z,16.50
2022-10-21T05:58:08.618Z,16.67
2022-10-21T06:00:35.573Z,17.50
2022-10-21T06:03:02.650Z,16.97
2022-10-21T06:05:29.533Z,16.10
2022-10-21T06:07:56.341Z,17.07
2022-10-21T06:10:26.724Z,17.80
2022-10-21T06:12:56.017Z,17.27
2022-10-21T06:15:22.829Z,16.30
2022-10-21T06:17:49.644Z,15.80
2022-10-21T06:20:16.613Z,17.47
2022-10-21T06:22:43.489Z,17.00
2022-10-21T06:25:10.399Z,16.33
2022-10-21T06:27:37.569Z,16.33
2022-10-21T06:30:05.199Z,15.70
2022-10-21T06:32:32.865Z,17.20
2022-10-21T06:34:59.744Z,17.00
2022-10-21T06:37:26.591Z,17.67
2022-10-21T06:39:53.418Z,16.63
2022-10-21T06:42:20.589Z,17.50
2022-10-21T06:44:47.433Z,17.07
2022-10-21T06:47:14.288Z,16.93
2022-10-21T06:49:41.151Z,17.17
2022-10-21T06:52:08.015Z,16.73
2022-10-21T06:54:34.839Z,16.97
2022-10-21T06:57:01.743Z,16.67
2022-10-21T06:59:28.611Z,16.97
2022-10-21T07:02:00.239Z,18.20
2022-10-21T07:04:28.137Z,22.83
2022-10-21T07:06:55.224Z,55.47
2022-10-21T07:09:22.205Z,23.93
2022-10-21T07:11:49.090Z,22.60
2022-10-21T07:14:15.976Z,21.57
2022-10-21T07:16:42.945Z,17.97
2022-10-21T07:19:11.158Z,18.40
2022-10-21T07:21:38.328Z,18.80
2022-10-21T07:24:05.369Z,18.57
2022-10-21T07:26:33.890Z,19.40
2022-10-21T07:29:01.358Z,18.33
2022-10-21T07:31:32.110Z,18.13
2022-10-21T07:36:42.160Z,18.03
2022-10-21T07:39:13.035Z,19.10
2022-10-21T07:41:43.449Z,18.23
2022-10-21T07:44:11.233Z,18.10
2022-10-21T07:46:40.301Z,16.83
2022-10-21T07:49:08.116Z,17.90
2022-10-21T07:51:35.061Z,18.50
2022-10-21T07:54:04.178Z,18.20
2022-10-21T07:56:34.488Z,18.00
2022-10-21T07:59:02.423Z,18.20
2022-10-21T08:01:29.601Z,19.90
2022-10-21T08:03:57.652Z,19.17
2022-10-21T08:06:26.738Z,18.70
2022-10-21T08:08:55.897Z,18.53
2022-10-21T08:11:28.264Z,18.67
2022-10-21T08:13:55.675Z,20.57
2022-10-21T08:16:23.253Z,19.37
2022-10-21T08:18:50.813Z,18.90
2022-10-21T08:21:17.995Z,19.37
2022-10-21T08:23:45.154Z,20.13
2022-10-21T08:26:15.128Z,17.93
2022-10-21T08:28:42.500Z,18.67
2022-10-21T08:31:19.125Z,19.20
2022-10-21T08:33:46.484Z,19.33
2022-10-21T08:36:25.189Z,18.40
2022-10-21T08:38:53.087Z,18.30
2022-10-21T08:41:32.379Z,18.63
2022-10-21T08:44:25.555Z,19.23
2022-10-21T08:47:02.654Z,18.73
2022-10-21T08:49:56.548Z,19.10
2022-10-21T08:52:36.668Z,19.50
2022-10-21T08:55:06.669Z,19.30
2022-10-21T08:57:35.594Z,19.23
2022-10-21T09:00:11.633Z,20.83
2022-10-21T09:02:59.023Z,21.77
2022-10-21T09:05:57.414Z,22.03
2022-10-21T09:08:39.696Z,19.03
2022-10-21T09:11:15.636Z,19.10
2022-10-21T09:14:01.595Z,20.70
2022-10-21T09:16:31.403Z,20.67
2022-10-21T09:19:27.356Z,20.17
2022-10-21T09:22:33.704Z,19.57
2022-10-21T09:25:16.996Z,20.07
2022-10-21T09:27:55.474Z,20.40
2022-10-21T09:30:24.310Z,20.07
2022-10-21T09:32:58.909Z,19.40
2022-10-21T09:35:42.294Z,19.03
2022-10-21T09:38:47.947Z,20.40
2022-10-21T09:41:19.040Z,20.57
2022-10-21T09:43:47.879Z,20.73
2022-10-21T09:46:16.320Z,19.93
2022-10-21T09:49:16.223Z,24.90
2022-10-21T09:51:37.826Z,21.03
2022-10-21T09:54:22.028Z,21.50
2022-10-21T09:57:10.695Z,21.93
2022-10-21T09:59:59.579Z,20.63
2022-10-21T10:02:40.675Z,21.63
2022-10-21T10:05:36.279Z,20.33
2022-10-21T10:08:32.084Z,19.93
2022-10-21T10:11:11.622Z,21.33
2022-10-21T10:13:47.783Z,23.00
2022-10-21T10:16:28.277Z,23.00
2022-10-21T10:19:21.576Z,22.10
2022-10-21T10:22:10.418Z,22.97
2022-10-21T10:24:40.680Z,23.30
2022-10-21T10:27:23.339Z,23.80
2022-10-21T10:29:54.634Z,20.97
2022-10-21T10:32:24.757Z,24.47
2022-10-21T10:35:00.588Z,33.07
2022-10-21T10:37:31.657Z,25.80
2022-10-21T10:40:00.760Z,24.37
2022-10-21T10:42:33.182Z,23.60
2022-10-21T10:45:20.432Z,22.43
2022-10-21T10:47:55.028Z,20.30
2022-10-21T10:50:43.511Z,18.97
2022-10-21T10:53:41.002Z,18.90
2022-10-21T10:56:23.053Z,17.93
2022-10-21T10:59:25.162Z,20.30
2022-10-21T11:02:39.509Z,19.00
2022-10-21T11:05:37.037Z,15.90
2022-10-21T11:08:33.323Z,16.10
2022-10-21T11:11:05.909Z,15.50
2022-10-21T11:13:38.885Z,14.63
2022-10-21T11:16:44.911Z,21.87
2022-10-21T11:19:34.264Z,14.70
2022-10-21T11:22:06.143Z,14.30
2022-10-21T11:24:57.067Z,13.30
2022-10-21T11:28:06.747Z,11.07
2022-10-21T11:30:49.239Z,8.80
2022-10-21T11:33:25.596Z,8.90
2022-10-21T11:36:08.036Z,8.20
2022-10-21T11:39:12.873Z,7.17
2022-10-21T11:41:43.359Z,6.87
2022-10-21T11:44:26.081Z,6.33
2022-10-21T11:47:18.776Z,5.20
2022-10-21T11:50:03.795Z,6.43
2022-10-21T11:52:36.582Z,5.53
2022-10-21T11:55:24.451Z,5.23
2022-10-21T11:58:18.916Z,4.97
2022-10-21T12:01:10.246Z,3.57
2022-10-21T12:04:14.159Z,4.17
2022-10-21T12:06:55.931Z,4.00
2022-10-21T12:09:29.848Z,4.40
2022-10-21T12:12:06.793Z,3.90
2022-10-21T12:14:42.133Z,3.40
2022-10-21T12:17:16.175Z,2.63
2022-10-21T12:19:53.760Z,1.90
2022-10-21T12:22:21.690Z,2.00
2022-10-21T12:25:05.911Z,1.60
2022-10-21T12:27:48.592Z,1.70
2022-10-21T12:30:35.611Z,1.70
2022-10-21T12:33:36.746Z,1.60
2022-10-21T12:36:18.378Z,1.40
2022-10-21T12:38:49.916Z,1.80
2022-10-21T12:41:38.470Z,1.27
2022-10-21T12:44:17.974Z,1.10
2022-10-21T12:46:48.366Z,1.80
2022-10-21T12:49:30.590Z,1.40
2022-10-21T12:52:06.540Z,1.50
2022-10-21T12:54:57.103Z,1.60
2022-10-21T12:57:28.917Z,1.20
2022-10-21T13:00:15.095Z,1.50
2022-10-21T13:03:07.854Z,1.70
2022-10-21T13:05:37.706Z,1.60
2022-10-21T13:08:23.006Z,1.43
2022-10-21T13:11:05.181Z,1.90
2022-10-21T13:13:41.104Z,1.60
2022-10-21T13:16:20.190Z,1.50
2022-10-21T13:19:01.809Z,1.70
2022-10-21T13:21:52.409Z,1.73
2022-10-21T13:24:26.114Z,1.63
2022-10-21T13:26:58.761Z,1.60
2022-10-21T13:29:37.599Z,2.00
2022-10-21T13:32:19.562Z,1.60
2022-10-21T13:34:57.112Z,1.83
2022-10-21T13:37:52.178Z,1.50
2022-10-21T13:40:22.053Z,1.70
2022-10-21T13:42:59.802Z,1.70
2022-10-21T13:45:29.076Z,1.60
2022-10-21T13:48:19.483Z,2.60
2022-10-21T13:50:48.648Z,1.90
2022-10-21T13:53:18.291Z,1.70
2022-10-21T13:56:02.360Z,1.80
2022-10-21T13:58:31.765Z,2.00
2022-10-21T14:01:08.346Z,2.10
2022-10-21T14:03:35.619Z,1.90
2022-10-21T14:06:03.509Z,1.63
2022-10-21T14:08:42.524Z,1.90
2022-10-21T14:11:18.143Z,2.00
2022-10-21T14:13:46.537Z,1.43
2022-10-21T14:16:31.310Z,1.57
2022-10-21T14:19:00.381Z,1.70
2022-10-21T14:21:30.332Z,1.80
2022-10-21T14:23:57.863Z,1.53
2022-10-21T14:26:30.506Z,1.80
2022-10-21T14:29:00.462Z,1.70
2022-10-21T14:31:27.716Z,1.50
2022-10-21T14:33:54.564Z,1.50
2022-10-21T14:36:25.053Z,1.60
2022-10-21T14:39:06.020Z,4.70
2022-10-21T14:41:37.208Z,1.80
2022-10-21T14:44:20.279Z,3.87
2022-10-21T14:46:50.798Z,9.40
2022-10-21T14:49:30.460Z,1.97
2022-10-21T14:52:06.672Z,1.73
2022-10-21T14:54:41.708Z,1.97
2022-10-21T14:57:41.634Z,3.87
2022-10-21T15:00:22.259Z,2.30
2022-10-21T15:02:50.698Z,1.87
2022-10-21T15:05:48.846Z,1.70
2022-10-21T15:08:22.808Z,2.20
2022-10-21T15:11:02.122Z,1.90
2022-10-21T15:13:28.945Z,2.07
2022-10-21T15:15:57.821Z,3.30
2022-10-21T15:18:45.578Z,2.30
2022-10-21T15:21:23.674Z,2.10
2022-10-21T15:23:55.869Z,2.10
2022-10-21T15:26:34.762Z,3.60
2022-10-21T15:29:11.788Z,1.93
2022-10-21T15:31:38.598Z,2.73
2022-10-21T15:34:08.791Z,2.60
2022-10-21T15:36:37.383Z,2.70
2022-10-21T15:39:06.879Z,2.60
2022-10-21T15:41:36.236Z,2.30
2022-10-21T15:44:21.194Z,2.60
2022-10-21T15:46:50.204Z,2.20
2022-10-21T15:49:23.443Z,2.63
2022-10-21T15:51:51.047Z,3.00
2022-10-21T15:54:19.535Z,3.20
2022-10-21T15:56:49.479Z,2.80
2022-10-21T15:59:19.340Z,2.67
2022-10-21T16:01:46.876Z,2.70
2022-10-21T16:04:13.712Z,2.37
2022-10-21T16:06:45.845Z,2.60
2022-10-21T16:09:20.689Z,2.10
2022-10-21T16:12:01.025Z,5.13
2022-10-21T16:14:30.127Z,4.47
2022-10-21T16:16:58.406Z,3.50
2022-10-21T16:19:25.295Z,2.37
2022-10-21T16:21:52.085Z,2.67
2022-10-21T16:24:19.068Z,2.63
2022-10-21T16:26:47.975Z,3.37
2022-10-21T16:29:25.202Z,2.80
2022-10-21T16:31:52.852Z,2.63
2022-10-21T16:34:20.246Z,2.50
2022-10-21T16:36:47.105Z,3.63
2022-10-21T16:39:19.717Z,2.50
2022-10-21T16:41:46.578Z,2.67
2022-10-21T16:44:13.629Z,2.73
2022-10-21T16:46:51.051Z,2.57
2022-10-21T16:49:22.804Z,3.10
2022-10-21T16:51:51.994Z,4.10
2022-10-21T16:54:19.942Z,4.77
2022-10-21T16:56:46.801Z,3.10
2022-10-21T16:59:13.977Z,3.43
2022-10-21T17:01:41.489Z,12.90
2022-10-21T17:04:08.654Z,5.60
2022-10-21T17:06:35.475Z,3.77
2022-10-21T17:09:02.358Z,3.50
2022-10-21T17:11:34.856Z,6.17
2022-10-21T17:14:02.927Z,5.90
2022-10-21T17:16:30.186Z,7.53
2022-10-21T17:18:57.159Z,10.03
2022-10-21T17:21:25.120Z,8.43
2022-10-21T17:23:52.552Z,9.30
2022-10-21T17:26:20.010Z,10.40
2022-10-21T17:28:47.458Z,9.90
2022-10-21T17:31:19.638Z,10.70
2022-10-21T17:33:47.392Z,11.20
2022-10-21T17:36:15.437Z,12.60
2022-10-21T17:38:42.634Z,11.90
2022-10-21T17:41:14.554Z,7.13
2022-10-21T17:43:41.399Z,8.37
2022-10-21T17:46:14.751Z,8.50
2022-10-21T17:48:41.616Z,9.93
2022-10-21T17:51:09.762Z,8.27
2022-10-21T17:53:36.665Z,8.77
2022-10-21T17:56:06.542Z,8.40
2022-10-21T17:58:34.415Z,8.23
2022-10-21T18:01:05.993Z,8.70
2022-10-21T18:03:32.862Z,7.60
2022-10-21T18:05:59.724Z,8.13
2022-10-21T18:08:26.517Z,7.73
2022-10-21T18:10:58.915Z,8.20
2022-10-21T18:13:28.050Z,8.03
2022-10-21T18:15:55.847Z,8.20
2022-10-21T18:18:23.324Z,8.77
2022-10-21T18:20:50.535Z,8.90
2022-10-21T18:23:17.681Z,18.97
2022-10-21T18:25:44.537Z,10.40
2022-10-21T18:28:11.332Z,9.63
2022-10-21T18:30:43.013Z,11.30
2022-10-21T18:33:10.660Z,11.70
2022-10-21T18:35:37.803Z,10.43
2022-10-21T18:38:04.888Z,9.90
2022-10-21T18:40:33.545Z,11.60
2022-10-21T18:43:00.360Z,10.47
2022-10-21T18:45:27.184Z,12.27
2022-10-21T18:47:55.611Z,10.40
2022-10-21T18:50:22.519Z,10.07
2022-10-21T18:52:49.597Z,9.47
2022-10-21T18:55:16.651Z,9.10
2022-10-21T18:57:43.830Z,9.33
2022-10-21T19:00:10.962Z,9.57
2022-10-21T19:02:38.114Z,8.57
2022-10-21T19:05:05.326Z,8.60
2022-10-21T19:07:32.208Z,9.77
2022-10-21T19:09:59.065Z,9.60
2022-10-21T19:12:25.883Z,9.60
2022-10-21T19:14:52.727Z,11.77
2022-10-21T19:17:19.896Z,11.40
2022-10-21T19:19:46.744Z,10.80
2022-10-21T19:22:14.595Z,10.50
2022-10-21T19:24:41.557Z,9.73
2022-10-21T19:27:08.482Z,10.80
2022-10-21T19:29:35.316Z,10.53
2022-10-21T19:32:02.355Z,11.00
2022-10-21T19:34:29.177Z,11.27
2022-10-21T19:36:55.991Z,10.90
2022-10-21T19:39:22.863Z,11.40
2022-10-21T19:41:49.776Z,10.67
2022-10-21T19:44:16.883Z,11.27
2022-10-21T19:46:44.825Z,10.97
2022-10-21T19:49:14.575Z,12.40
2022-10-21T19:51:41.392Z,11.50
2022-10-21T19:54:09.176Z,11.43
2022-10-21T19:56:36.096Z,10.87
2022-10-21T19:59:04.343Z,11.23
2022-10-21T20:01:32.183Z,11.27
2022-10-21T20:04:00.961Z,11.20
2022-10-21T20:06:30.657Z,11.77
2022-10-21T20:09:00.580Z,10.67
2022-10-21T20:11:28.212Z,11.30
2022-10-21T20:13:55.359Z,11.00
2022-10-21T20:16:28.685Z,9.77
2022-10-21T20:18:56.366Z,9.73
2022-10-21T20:21:24.917Z,9.63
2022-10-21T20:23:51.904Z,9.60
2022-10-21T20:26:19.422Z,9.37
2022-10-21T20:28:46.262Z,9.20
2022-10-21T20:31:15.553Z,10.17
2022-10-21T20:33:45.195Z,10.07
2022-10-21T20:36:20.692Z,7.37
2022-10-21T20:38:50.271Z,7.53
2022-10-21T20:41:23.169Z,7.67
2022-10-21T20:43:51.681Z,6.90
2022-10-21T20:46:20.322Z,6.93
2022-10-21T20:48:49.817Z,6.57
2022-10-21T20:51:25.575Z,6.80
2022-10-21T20:54:01.473Z,6.93
2022-10-21T20:56:30.715Z,7.10
2022-10-21T20:58:58.309Z,7.00
2022-10-21T21:01:28.414Z,6.43
2022-10-21T21:03:58.004Z,7.53
2022-10-21T21:06:25.281Z,6.57
2022-10-21T21:09:22.209Z,6.50
2022-10-21T21:11:39.536Z,5.63
2022-10-21T21:14:06.787Z,10.20
2022-10-21T21:16:33.619Z,9.93
2022-10-21T21:19:03.401Z,12.60
2022-10-21T21:21:33.102Z,11.17
2022-10-21T21:24:00.570Z,10.33
2022-10-21T21:26:32.617Z,11.53
2022-10-21T21:29:00.581Z,11.70
2022-10-21T21:31:29.375Z,13.20
2022-10-21T21:33:56.312Z,15.50
2022-10-21T21:36:23.714Z,13.03
2022-10-21T21:38:51.066Z,11.77
2022-10-21T21:41:18.531Z,8.10
2022-10-21T21:43:46.874Z,7.50
2022-10-21T21:46:22.778Z,6.83
2022-10-21T21:48:55.266Z,8.83
2022-10-21T21:51:25.916Z,10.30
2022-10-21T21:53:53.560Z,18.67
2022-10-21T21:56:21.287Z,19.00
2022-10-21T21:58:49.270Z,16.00
2022-10-21T22:01:21.471Z,13.77
2022-10-21T22:03:51.643Z,14.33
2022-10-21T22:06:23.942Z,14.57
2022-10-21T22:08:51.500Z,14.60
2022-10-21T22:11:22.477Z,14.73
2022-10-21T22:13:50.051Z,13.83
2022-10-21T22:16:17.804Z,16.53
2022-10-21T22:18:44.734Z,20.47
2022-10-21T22:21:15.163Z,15.40
2022-10-21T22:23:42.774Z,13.23
2022-10-21T22:26:11.232Z,10.13
2022-10-21T22:28:38.750Z,9.67
2022-10-21T22:31:08.760Z,9.50
2022-10-21T22:33:36.210Z,9.10
2022-10-21T22:36:04.068Z,8.93
2022-10-21T22:38:31.289Z,9.17
2022-10-21T22:41:00.213Z,9.00
2022-10-21T22:43:28.108Z,9.37
2022-10-21T22:46:05.140Z,10.33
2022-10-21T22:48:42.623Z,11.00
2022-10-21T22:51:09.451Z,12.20
2022-10-21T22:53:36.814Z,11.57
2022-10-21T22:56:04.066Z,10.00
2022-10-21T22:58:30.942Z,9.40
2022-10-21T23:00:57.949Z,8.90
2022-10-21T23:03:25.259Z,9.10
2022-10-21T23:05:52.107Z,7.70
2022-10-21T23:08:19.429Z,7.70
2022-10-21T23:10:49.322Z,7.50
2022-10-21T23:13:16.628Z,7.40
2022-10-21T23:15:44.557Z,8.20
2022-10-21T23:18:11.394Z,7.53
2022-10-21T23:20:38.354Z,7.27
2022-10-21T23:23:05.309Z,7.30
2022-10-21T23:25:32.290Z,8.00
2022-10-21T23:27:59.238Z,7.27
2022-10-21T23:30:26.041Z,7.20
2022-10-21T23:32:52.878Z,7.83
2022-10-21T23:35:20.232Z,6.93
2022-10-21T23:37:47.277Z,7.53
2022-10-21T23:40:14.223Z,7.20
2022-10-21T23:42:42.867Z,6.83
2022-10-21T23:45:11.412Z,7.00
2022-10-21T23:47:40.013Z,7.03
2022-10-21T23:50:09.062Z,7.33
2022-10-21T23:52:36.565Z,6.97
2022-10-21T23:55:07.823Z,6.43
2022-10-21T23:57:34.974Z,6.60
